createdAt,value
2016-12-30T00:00:03.414Z,1031.61
2016-12-30T00:00:29.502Z,1031.62
2016-12-30T00:00:55.603Z,1031.6
2016-12-30T00:01:21.691Z,1031.61
2016-12-30T00:01:47.785Z,1031.59
2016-12-30T00:02:13.890Z,1031.6
2016-12-30T00:02:39.980Z,1031.62
2016-12-30T00:03:06.064Z,1031.58
2016-12-30T00:03:32.168Z,1031.6
2016-12-30T00:03:58.264Z,1031.56
2016-12-30T00:04:24.343Z,1031.56
2016-12-30T00:04:50.448Z,1031.59
2016-12-30T00:05:16.542Z,1031.56
2016-12-30T00:05:42.633Z,1031.54
2016-12-30T00:06:08.734Z,1031.54
2016-12-30T00:06:34.816Z,1031.54
2016-12-30T00:07:00.925Z,1031.53
2016-12-30T00:07:27.020Z,1031.51
2016-12-30T00:07:53.106Z,1031.54
2016-12-30T00:08:19.212Z,1031.51
2016-12-30T00:08:45.304Z,1031.53
2016-12-30T00:09:11.391Z,1031.52
2016-12-30T00:09:37.491Z,1031.51
2016-12-30T00:10:03.600Z,1031.49
2016-12-30T00:10:29.683Z,1031.5
2016-12-30T00:10:55.779Z,1031.53
2016-12-30T00:11:21.880Z,1031.5
2016-12-30T00:11:47.968Z,1031.55
2016-12-30T00:12:14.071Z,1031.53
2016-12-30T00:12:40.151Z,1031.56
2016-12-30T00:13:06.255Z,1031.59
2016-12-30T00:13:32.356Z,1031.55
2016-12-30T00:13:58.438Z,1031.55
2016-12-30T00:14:24.532Z,1031.57
2016-12-30T00:14:50.638Z,1031.55
2016-12-30T00:15:16.721Z,1031.56
2016-12-30T00:15:42.814Z,1031.55
2016-12-30T00:16:08.917Z,1031.57
2016-12-30T00:16:35.011Z,1031.56
2016-12-30T00:17:01.102Z,1031.59
2016-12-30T00:17:27.197Z,1031.57
2016-12-30T00:17:53.300Z,1031.56
2016-12-30T00:18:19.400Z,1031.55
2016-12-30T00:18:45.485Z,1031.54
2016-12-30T00:19:11.573Z,1031.54
2016-12-30T00:19:37.681Z,1031.53
2016-12-30T00:20:03.773Z,1031.54
2016-12-30T00:20:29.859Z,1031.56
2016-12-30T00:20:55.968Z,1031.54
2016-12-30T00:21:22.059Z,1031.55
2016-12-30T00:21:48.145Z,1031.53
2016-12-30T00:22:14.250Z,1031.54
2016-12-30T00:22:40.354Z,1031.57
2016-12-30T00:23:06.447Z,1031.56
2016-12-30T00:23:32.536Z,1031.59
2016-12-30T00:23:58.628Z,1031.59
2016-12-30T00:24:24.736Z,1031.58
2016-12-30T00:24:50.831Z,1031.62
2016-12-30T00:25:16.913Z,1031.61
2016-12-30T00:25:43.018Z,1031.63
2016-12-30T00:26:09.116Z,1031.56
2016-12-30T00:26:35.200Z,1031.61
2016-12-30T00:27:01.304Z,1031.58
2016-12-30T00:27:27.414Z,1031.6
2016-12-30T00:27:53.501Z,1031.57
2016-12-30T00:28:19.601Z,1031.59
2016-12-30T00:28:45.697Z,1031.59
2016-12-30T00:29:11.796Z,1031.56
2016-12-30T00:29:37.891Z,1031.62
2016-12-30T00:30:03.974Z,1031.62
2016-12-30T00:30:30.075Z,1031.61
2016-12-30T00:30:56.184Z,1031.56
2016-12-30T00:31:22.264Z,1031.56
2016-12-30T00:31:48.357Z,1031.54
2016-12-30T00:32:14.466Z,1031.56
2016-12-30T00:32:40.551Z,1031.51
2016-12-30T00:33:06.644Z,1031.54
2016-12-30T00:33:32.752Z,1031.51
2016-12-30T00:33:58.839Z,1031.52
2016-12-30T00:34:24.938Z,1031.56
2016-12-30T00:34:51.027Z,1031.55
2016-12-30T00:35:17.145Z,1031.57
2016-12-30T00:35:43.254Z,1031.53
2016-12-30T00:36:09.336Z,1031.53
2016-12-30T00:36:35.426Z,1031.55
2016-12-30T00:37:01.531Z,1031.52
2016-12-30T00:37:27.627Z,1031.53
2016-12-30T00:37:53.708Z,1031.5
2016-12-30T00:38:19.819Z,1031.5
2016-12-30T00:38:45.915Z,1031.5
2016-12-30T00:39:11.997Z,1031.5
2016-12-30T00:39:38.107Z,1031.52
2016-12-30T00:40:04.227Z,1031.47
2016-12-30T00:40:30.316Z,1031.49
2016-12-30T00:40:56.418Z,1031.47
2016-12-30T00:41:22.520Z,1031.47
2016-12-30T00:41:48.600Z,1031.45
2016-12-30T00:42:14.691Z,1031.44
2016-12-30T00:42:40.796Z,1031.44
2016-12-30T00:43:06.884Z,1031.48
2016-12-30T00:43:32.984Z,1031.43
2016-12-30T00:43:59.083Z,1031.43
2016-12-30T00:44:25.180Z,1031.43
2016-12-30T00:44:51.269Z,1031.43
2016-12-30T00:45:17.372Z,1031.42
2016-12-30T00:45:43.468Z,1031.41
2016-12-30T00:46:09.567Z,1031.4
2016-12-30T00:46:35.659Z,1031.4
2016-12-30T00:47:01.751Z,1031.35
2016-12-30T00:47:27.855Z,1031.41
2016-12-30T00:47:53.945Z,1031.38
2016-12-30T00:48:20.025Z,1031.38
2016-12-30T00:48:46.130Z,1031.35
2016-12-30T00:49:12.223Z,1031.34
2016-12-30T00:49:38.311Z,1031.38
2016-12-30T00:50:04.415Z,1031.36
2016-12-30T00:50:30.513Z,1031.39
2016-12-30T00:50:56.608Z,1031.34
2016-12-30T00:51:22.701Z,1031.34
2016-12-30T00:51:48.793Z,1031.33
2016-12-30T00:52:14.898Z,1031.32
2016-12-30T00:52:40.991Z,1031.36
2016-12-30T00:53:07.075Z,1031.34
2016-12-30T00:53:33.179Z,1031.32
2016-12-30T00:53:59.271Z,1031.32
2016-12-30T00:54:25.365Z,1031.35
2016-12-30T00:54:51.460Z,1031.32
2016-12-30T00:55:17.563Z,1031.36
2016-12-30T00:55:43.648Z,1031.35
2016-12-30T00:56:09.746Z,1031.37
2016-12-30T00:56:35.840Z,1031.37
2016-12-30T00:57:01.939Z,1031.4
2016-12-30T00:57:28.031Z,1031.39
2016-12-30T00:57:54.113Z,1031.39
2016-12-30T00:58:20.221Z,1031.43
2016-12-30T00:58:46.327Z,1031.42
2016-12-30T00:59:12.409Z,1031.44
2016-12-30T00:59:38.502Z,1031.4
2016-12-30T01:00:04.606Z,1031.43
2016-12-30T01:00:30.699Z,1031.42
2016-12-30T01:00:56.790Z,1031.41
2016-12-30T01:01:22.893Z,1031.41
2016-12-30T01:01:48.987Z,1031.41
2016-12-30T01:02:15.080Z,1031.46
2016-12-30T01:02:41.184Z,1031.48
2016-12-30T01:03:07.277Z,1031.45
2016-12-30T01:03:33.359Z,1031.46
2016-12-30T01:03:59.467Z,1031.45
2016-12-30T01:04:25.566Z,1031.46
2016-12-30T01:04:51.651Z,1031.45
2016-12-30T01:05:17.753Z,1031.41
2016-12-30T01:05:43.857Z,1031.44
2016-12-30T01:06:09.937Z,1031.45
2016-12-30T01:06:36.034Z,1031.4
2016-12-30T01:07:02.137Z,1031.43
2016-12-30T01:07:28.222Z,1031.39
2016-12-30T01:07:54.321Z,1031.39
2016-12-30T01:08:20.414Z,1031.42
2016-12-30T01:08:46.513Z,1031.4
2016-12-30T01:09:12.618Z,1031.43
2016-12-30T01:09:38.695Z,1031.43
2016-12-30T01:10:04.792Z,1031.44
2016-12-30T01:10:30.901Z,1031.43
2016-12-30T01:10:56.986Z,1031.47
2016-12-30T01:11:23.085Z,1031.45
2016-12-30T01:11:49.185Z,1031.47
2016-12-30T01:12:15.275Z,1031.48
2016-12-30T01:12:41.362Z,1031.48
2016-12-30T01:13:07.463Z,1031.51
2016-12-30T01:13:33.562Z,1031.47
2016-12-30T01:13:59.659Z,1031.5
2016-12-30T01:14:25.747Z,1031.47
2016-12-30T01:14:51.839Z,1031.48
2016-12-30T01:15:17.946Z,1031.48
2016-12-30T01:15:44.039Z,1031.51
2016-12-30T01:16:10.125Z,1031.51
2016-12-30T01:16:36.230Z,1031.52
2016-12-30T01:17:02.326Z,1031.54
2016-12-30T01:17:28.409Z,1031.54
2016-12-30T01:17:54.514Z,1031.52
2016-12-30T01:18:20.608Z,1031.52
2016-12-30T01:18:46.701Z,1031.52
2016-12-30T01:19:12.789Z,1031.51
2016-12-30T01:19:38.883Z,1031.52
2016-12-30T01:20:04.986Z,1031.54
2016-12-30T01:20:31.083Z,1031.52
2016-12-30T01:20:57.167Z,1031.5
2016-12-30T01:21:23.271Z,1031.51
2016-12-30T01:21:49.367Z,1031.47
2016-12-30T01:22:15.450Z,1031.46
2016-12-30T01:22:41.548Z,1031.45
2016-12-30T01:23:07.655Z,1031.44
2016-12-30T01:23:33.737Z,1031.45
2016-12-30T01:23:59.831Z,1031.44
2016-12-30T01:24:25.931Z,1031.4
2016-12-30T01:24:52.024Z,1031.44
2016-12-30T01:25:18.115Z,1031.4
2016-12-30T01:25:44.223Z,1031.46
2016-12-30T01:26:10.305Z,1031.45
2016-12-30T01:26:36.391Z,1031.42
2016-12-30T01:27:02.500Z,1031.44
2016-12-30T01:27:28.594Z,1031.44
2016-12-30T01:27:54.684Z,1031.4
2016-12-30T01:28:20.781Z,1031.43
2016-12-30T01:28:46.875Z,1031.44
2016-12-30T01:29:12.967Z,1031.43
2016-12-30T01:29:39.066Z,1031.42
2016-12-30T01:30:05.156Z,1031.41
2016-12-30T01:30:31.258Z,1031.4
2016-12-30T01:30:57.355Z,1031.38
2016-12-30T01:31:23.441Z,1031.4
2016-12-30T01:31:49.546Z,1031.41
2016-12-30T01:32:15.644Z,1031.34
2016-12-30T01:32:41.733Z,1031.37
2016-12-30T01:33:07.839Z,1031.38
2016-12-30T01:33:33.938Z,1031.37
2016-12-30T01:34:00.024Z,1031.34
2016-12-30T01:34:26.118Z,1031.37
2016-12-30T01:34:52.219Z,1031.37
2016-12-30T01:35:18.302Z,1031.38
2016-12-30T01:35:44.403Z,1031.41
2016-12-30T01:36:10.489Z,1031.4
2016-12-30T01:36:36.589Z,1031.4
2016-12-30T01:37:02.695Z,1031.42
2016-12-30T01:37:28.772Z,1031.42
2016-12-30T01:37:54.866Z,1031.43
2016-12-30T01:38:20.971Z,1031.4
2016-12-30T01:38:47.055Z,1031.41
2016-12-30T01:39:13.150Z,1031.39
2016-12-30T01:39:39.253Z,1031.42
2016-12-30T01:40:05.349Z,1031.43
2016-12-30T01:40:31.436Z,1031.42
2016-12-30T01:40:57.529Z,1031.44
2016-12-30T01:41:23.633Z,1031.43
2016-12-30T01:41:49.733Z,1031.43
2016-12-30T01:42:15.817Z,1031.4
2016-12-30T01:42:41.904Z,1031.39
2016-12-30T01:43:08.013Z,1031.39
2016-12-30T01:43:34.104Z,1031.43
2016-12-30T01:44:00.191Z,1031.4
2016-12-30T01:44:26.304Z,1031.42
2016-12-30T01:44:52.392Z,1031.4
2016-12-30T01:45:18.480Z,1031.41
2016-12-30T01:45:44.581Z,1031.42
2016-12-30T01:46:10.676Z,1031.4
2016-12-30T01:46:36.775Z,1031.4
2016-12-30T01:47:02.862Z,1031.44
2016-12-30T01:47:28.952Z,1031.43
2016-12-30T01:47:55.064Z,1031.41
2016-12-30T01:48:21.158Z,1031.41
2016-12-30T01:48:47.246Z,1031.41
2016-12-30T01:49:13.342Z,1031.45
2016-12-30T01:49:39.440Z,1031.43
2016-12-30T01:50:05.524Z,1031.39
2016-12-30T01:50:31.628Z,1031.42
2016-12-30T01:50:57.727Z,1031.42
2016-12-30T01:51:23.814Z,1031.41
2016-12-30T01:51:49.913Z,1031.48
2016-12-30T01:52:15.998Z,1031.43
2016-12-30T01:52:42.096Z,1031.41
2016-12-30T01:53:08.189Z,1031.43
2016-12-30T01:53:34.276Z,1031.46
2016-12-30T01:54:00.370Z,1031.44
2016-12-30T01:54:26.470Z,1031.39
2016-12-30T01:54:52.553Z,1031.39
2016-12-30T01:55:18.648Z,1031.41
2016-12-30T01:55:44.785Z,1031.41
2016-12-30T01:56:10.868Z,1031.38
2016-12-30T01:56:36.963Z,1031.38
2016-12-30T01:57:03.063Z,1031.41
2016-12-30T01:57:29.152Z,1031.4
2016-12-30T01:57:55.261Z,1031.4
2016-12-30T01:58:21.347Z,1031.39
2016-12-30T01:58:47.450Z,1031.37
2016-12-30T01:59:13.555Z,1031.39
2016-12-30T01:59:39.643Z,1031.42
2016-12-30T02:00:05.736Z,1031.39
2016-12-30T02:00:31.842Z,1031.42
2016-12-30T02:00:57.931Z,1031.42
2016-12-30T02:01:24.014Z,1031.46
2016-12-30T02:01:50.120Z,1031.41
2016-12-30T02:02:16.213Z,1031.43
2016-12-30T02:02:42.304Z,1031.43
2016-12-30T02:03:08.406Z,1031.45
2016-12-30T02:03:34.494Z,1031.41
2016-12-30T02:04:00.597Z,1031.44
2016-12-30T02:04:26.685Z,1031.41
2016-12-30T02:04:52.778Z,1031.41
2016-12-30T02:05:18.883Z,1031.41
2016-12-30T02:05:44.971Z,1031.39
2016-12-30T02:06:11.057Z,1031.42
2016-12-30T02:06:37.157Z,1031.4
2016-12-30T02:07:03.258Z,1031.42
2016-12-30T02:07:29.340Z,1031.41
2016-12-30T02:07:55.443Z,1031.35
2016-12-30T02:08:21.541Z,1031.36
2016-12-30T02:08:47.622Z,1031.35
2016-12-30T02:09:13.716Z,1031.35
2016-12-30T02:09:39.821Z,1031.33
2016-12-30T02:10:05.907Z,1031.32
2016-12-30T02:10:31.997Z,1031.33
2016-12-30T02:10:58.101Z,1031.32
2016-12-30T02:11:24.193Z,1031.32
2016-12-30T02:11:50.272Z,1031.3
2016-12-30T02:12:16.383Z,1031.28
2016-12-30T02:12:42.475Z,1031.27
2016-12-30T02:13:08.566Z,1031.29
2016-12-30T02:13:34.663Z,1031.29
2016-12-30T02:14:00.756Z,1031.27
2016-12-30T02:14:26.857Z,1031.28
2016-12-30T02:14:52.947Z,1031.27
2016-12-30T02:15:19.030Z,1031.26
2016-12-30T02:15:45.141Z,1031.26
2016-12-30T02:16:11.237Z,1031.27
2016-12-30T02:16:37.317Z,1031.26
2016-12-30T02:17:03.422Z,1031.26
2016-12-30T02:17:29.520Z,1031.27
2016-12-30T02:17:55.599Z,1031.27
2016-12-30T02:18:21.699Z,1031.31
2016-12-30T02:18:47.802Z,1031.29
2016-12-30T02:19:13.889Z,1031.29
2016-12-30T02:19:39.985Z,1031.29
2016-12-30T02:20:06.077Z,1031.28
2016-12-30T02:20:32.180Z,1031.27
2016-12-30T02:20:58.277Z,1031.34
2016-12-30T02:21:24.361Z,1031.29
2016-12-30T02:21:50.464Z,1031.3
2016-12-30T02:22:16.567Z,1031.3
2016-12-30T02:22:42.645Z,1031.3
2016-12-30T02:23:08.741Z,1031.34
2016-12-30T02:23:34.849Z,1031.29
2016-12-30T02:24:00.934Z,1031.26
2016-12-30T02:24:27.031Z,1031.27
2016-12-30T02:24:53.133Z,1031.3
2016-12-30T02:25:19.219Z,1031.23
2016-12-30T02:25:45.324Z,1031.25
2016-12-30T02:26:11.406Z,1031.25
2016-12-30T02:26:37.498Z,1031.27
2016-12-30T02:27:03.603Z,1031.24
2016-12-30T02:27:29.689Z,1031.27
2016-12-30T02:27:55.805Z,1031.25
2016-12-30T02:28:21.906Z,1031.25
2016-12-30T02:28:47.997Z,1031.27
2016-12-30T02:29:14.076Z,1031.25
2016-12-30T02:29:40.188Z,1031.29
2016-12-30T02:30:06.275Z,1031.27
2016-12-30T02:30:32.365Z,1031.27
2016-12-30T02:30:58.467Z,1031.31
2016-12-30T02:31:24.552Z,1031.33
2016-12-30T02:31:50.661Z,1031.34
2016-12-30T02:32:16.748Z,1031.34
2016-12-30T02:32:42.836Z,1031.33
2016-12-30T02:33:08.937Z,1031.37
2016-12-30T02:33:35.034Z,1031.36
2016-12-30T02:34:01.120Z,1031.38
2016-12-30T02:34:27.225Z,1031.42
2016-12-30T02:34:53.320Z,1031.37
2016-12-30T02:35:19.405Z,1031.41
2016-12-30T02:35:45.508Z,1031.4
2016-12-30T02:36:11.613Z,1031.42
2016-12-30T02:36:37.702Z,1031.42
2016-12-30T02:37:03.790Z,1031.46
2016-12-30T02:37:29.874Z,1031.38
2016-12-30T02:37:55.979Z,1031.39
2016-12-30T02:38:22.100Z,1031.37
2016-12-30T02:38:48.190Z,1031.39
2016-12-30T02:39:14.286Z,1031.4
2016-12-30T02:39:40.393Z,1031.37
2016-12-30T02:40:06.476Z,1031.36
2016-12-30T02:40:32.578Z,1031.38
2016-12-30T02:40:58.678Z,1031.35
2016-12-30T02:41:24.762Z,1031.34
2016-12-30T02:41:50.858Z,1031.34
2016-12-30T02:42:16.953Z,1031.34
2016-12-30T02:42:43.049Z,1031.32
2016-12-30T02:43:09.153Z,1031.32
2016-12-30T02:43:35.254Z,1031.32
2016-12-30T02:44:01.356Z,1031.29
2016-12-30T02:44:27.455Z,1031.25
2016-12-30T02:44:53.540Z,1031.3
2016-12-30T02:45:19.632Z,1031.28
2016-12-30T02:45:45.991Z,1031.26
2016-12-30T02:46:12.078Z,1031.28
2016-12-30T02:46:38.160Z,1031.3
2016-12-30T02:47:04.265Z,1031.28
2016-12-30T02:47:30.358Z,1031.3
2016-12-30T02:47:56.455Z,1031.32
2016-12-30T02:48:22.542Z,1031.28
2016-12-30T02:48:48.634Z,1031.32
2016-12-30T02:49:14.738Z,1031.33
2016-12-30T02:49:40.822Z,1031.34
2016-12-30T02:50:06.913Z,1031.33
2016-12-30T02:50:33.020Z,1031.33
2016-12-30T02:50:59.116Z,1031.36
2016-12-30T02:51:25.203Z,1031.36
2016-12-30T02:51:51.306Z,1031.38
2016-12-30T02:52:17.404Z,1031.35
2016-12-30T02:52:43.490Z,1031.36
2016-12-30T02:53:09.587Z,1031.35
2016-12-30T02:53:35.694Z,1031.35
2016-12-30T02:54:01.774Z,1031.33
2016-12-30T02:54:27.872Z,1031.35
2016-12-30T02:54:53.971Z,1031.34
2016-12-30T02:55:20.059Z,1031.33
2016-12-30T02:55:46.150Z,1031.33
2016-12-30T02:56:12.247Z,1031.34
2016-12-30T02:56:38.336Z,1031.32
2016-12-30T02:57:04.421Z,1031.35
2016-12-30T02:57:30.528Z,1031.34
2016-12-30T02:57:56.627Z,1031.36
2016-12-30T02:58:22.713Z,1031.34
2016-12-30T02:58:48.817Z,1031.36
2016-12-30T02:59:14.904Z,1031.4
2016-12-30T02:59:41.011Z,1031.38
2016-12-30T03:00:07.097Z,1031.36
2016-12-30T03:00:33.185Z,1031.38
2016-12-30T03:00:59.287Z,1031.4
2016-12-30T03:01:25.381Z,1031.37
2016-12-30T03:01:51.468Z,1031.39
2016-12-30T03:02:17.571Z,1031.38
2016-12-30T03:02:43.670Z,1031.39
2016-12-30T03:03:09.757Z,1031.42
2016-12-30T03:03:35.855Z,1031.39
2016-12-30T03:04:01.956Z,1031.42
2016-12-30T03:04:28.041Z,1031.39
2016-12-30T03:04:54.140Z,1031.4
2016-12-30T03:05:20.221Z,1031.37
2016-12-30T03:05:46.327Z,1031.39
2016-12-30T03:06:12.418Z,1031.39
2016-12-30T03:06:38.508Z,1031.37
2016-12-30T03:07:04.612Z,1031.39
2016-12-30T03:07:30.713Z,1031.39
2016-12-30T03:07:56.800Z,1031.39
2016-12-30T03:08:22.894Z,1031.4
2016-12-30T03:08:48.999Z,1031.39
2016-12-30T03:09:15.089Z,1031.35
2016-12-30T03:09:41.185Z,1031.33
2016-12-30T03:10:07.279Z,1031.36
2016-12-30T03:10:33.377Z,1031.38
2016-12-30T03:10:59.484Z,1031.34
2016-12-30T03:11:25.567Z,1031.37
2016-12-30T03:11:51.666Z,1031.35
2016-12-30T03:12:17.765Z,1031.34
2016-12-30T03:12:43.851Z,1031.34
2016-12-30T03:13:09.945Z,1031.36
2016-12-30T03:13:36.050Z,1031.36
2016-12-30T03:14:02.138Z,1031.32
2016-12-30T03:14:28.235Z,1031.36
2016-12-30T03:14:54.329Z,1031.38
2016-12-30T03:15:20.420Z,1031.38
2016-12-30T03:15:46.512Z,1031.38
2016-12-30T03:16:12.601Z,1031.35
2016-12-30T03:16:38.691Z,1031.36
2016-12-30T03:17:04.792Z,1031.34
2016-12-30T03:17:30.883Z,1031.34
2016-12-30T03:17:56.968Z,1031.34
2016-12-30T03:18:23.071Z,1031.32
2016-12-30T03:18:49.166Z,1031.3
2016-12-30T03:19:15.255Z,1031.31
2016-12-30T03:19:41.355Z,1031.29
2016-12-30T03:20:07.452Z,1031.3
2016-12-30T03:20:33.533Z,1031.27
2016-12-30T03:20:59.634Z,1031.29
2016-12-30T03:21:25.728Z,1031.29
2016-12-30T03:21:51.833Z,1031.28
2016-12-30T03:22:17.926Z,1031.25
2016-12-30T03:22:44.011Z,1031.25
2016-12-30T03:23:10.113Z,1031.24
2016-12-30T03:23:36.200Z,1031.25
2016-12-30T03:24:02.286Z,1031.22
2016-12-30T03:24:28.383Z,1031.25
2016-12-30T03:24:54.484Z,1031.21
2016-12-30T03:25:20.568Z,1031.21
2016-12-30T03:25:46.667Z,1031.2
2016-12-30T03:26:12.777Z,1031.22
2016-12-30T03:26:38.859Z,1031.18
2016-12-30T03:27:04.952Z,1031.2
2016-12-30T03:27:31.040Z,1031.18
2016-12-30T03:27:57.136Z,1031.16
2016-12-30T03:28:23.241Z,1031.14
2016-12-30T03:28:49.324Z,1031.14
2016-12-30T03:29:15.414Z,1031.17
2016-12-30T03:29:41.514Z,1031.12
2016-12-30T03:30:07.602Z,1031.12
2016-12-30T03:30:33.700Z,1031.11
2016-12-30T03:30:59.797Z,1031.1
2016-12-30T03:31:25.886Z,1031.11
2016-12-30T03:31:51.965Z,1031.1
2016-12-30T03:32:18.070Z,1031.07
2016-12-30T03:32:44.166Z,1031.1
2016-12-30T03:33:10.270Z,1031.12
2016-12-30T03:33:36.355Z,1031.08
2016-12-30T03:34:02.446Z,1031.13
2016-12-30T03:34:28.549Z,1031.1
2016-12-30T03:34:54.644Z,1031.08
2016-12-30T03:35:20.734Z,1031.1
2016-12-30T03:35:46.837Z,1031.07
2016-12-30T03:36:12.928Z,1031.1
2016-12-30T03:36:39.015Z,1031.09
2016-12-30T03:37:05.118Z,1031.07
2016-12-30T03:37:31.213Z,1031.09
2016-12-30T03:37:57.323Z,1031.13
2016-12-30T03:38:23.420Z,1031.1
2016-12-30T03:38:49.544Z,1031.08
2016-12-30T03:39:15.628Z,1031.12
2016-12-30T03:39:41.728Z,1031.07
2016-12-30T03:40:07.858Z,1031.1
2016-12-30T03:40:33.942Z,1031.11
2016-12-30T03:41:00.034Z,1031.11
2016-12-30T03:41:26.130Z,1031.11
2016-12-30T03:41:52.220Z,1031.1
2016-12-30T03:42:18.303Z,1031.14
2016-12-30T03:42:44.411Z,1031.06
2016-12-30T03:43:10.504Z,1031.11
2016-12-30T03:43:36.605Z,1031.1
2016-12-30T03:44:02.691Z,1031.11
2016-12-30T03:44:28.788Z,1031.13
2016-12-30T03:44:54.899Z,1031.13
2016-12-30T03:45:20.981Z,1031.14
2016-12-30T03:45:47.068Z,1031.14
2016-12-30T03:46:13.174Z,1031.12
2016-12-30T03:46:39.272Z,1031.13
2016-12-30T03:47:05.363Z,1031.11
2016-12-30T03:47:31.460Z,1031.14
2016-12-30T03:47:57.558Z,1031.13
2016-12-30T03:48:23.640Z,1031.12
2016-12-30T03:48:49.745Z,1031.15
2016-12-30T03:49:15.830Z,1031.15
2016-12-30T03:49:41.935Z,1031.15
2016-12-30T03:50:08.024Z,1031.16
2016-12-30T03:50:34.107Z,1031.17
2016-12-30T03:51:00.210Z,1031.13
2016-12-30T03:51:26.308Z,1031.13
2016-12-30T03:51:52.388Z,1031.11
2016-12-30T03:52:18.490Z,1031.15
2016-12-30T03:52:44.586Z,1031.13
2016-12-30T03:53:10.676Z,1031.12
2016-12-30T03:53:36.766Z,1031.15
2016-12-30T03:54:02.875Z,1031.17
2016-12-30T03:54:28.960Z,1031.13
2016-12-30T03:54:55.063Z,1031.11
2016-12-30T03:55:21.152Z,1031.11
2016-12-30T03:55:47.251Z,1031.15
2016-12-30T03:56:13.351Z,1031.14
2016-12-30T03:56:39.451Z,1031.14
2016-12-30T03:57:05.546Z,1031.12
2016-12-30T03:57:31.645Z,1031.15
2016-12-30T03:57:57.734Z,1031.15
2016-12-30T03:58:23.829Z,1031.14
2016-12-30T03:58:49.962Z,1031.11
2016-12-30T03:59:16.047Z,1031.16
2016-12-30T03:59:42.128Z,1031.13
2016-12-30T04:00:08.228Z,1031.12
2016-12-30T04:00:34.359Z,1031.09
2016-12-30T04:01:00.455Z,1031.13
2016-12-30T04:01:26.594Z,1031.13
2016-12-30T04:01:52.681Z,1031.13
2016-12-30T04:02:18.789Z,1031.13
2016-12-30T04:02:44.881Z,1031.12
2016-12-30T04:03:10.969Z,1031.12
2016-12-30T04:03:37.074Z,1031.18
2016-12-30T04:04:03.163Z,1031.2
2016-12-30T04:04:29.251Z,1031.18
2016-12-30T04:04:55.361Z,1031.21
2016-12-30T04:05:21.453Z,1031.17
2016-12-30T04:05:47.546Z,1031.21
2016-12-30T04:06:13.631Z,1031.2
2016-12-30T04:06:39.723Z,1031.17
2016-12-30T04:07:05.826Z,1031.23
2016-12-30T04:07:31.920Z,1031.16
2016-12-30T04:07:58.000Z,1031.15
2016-12-30T04:08:24.103Z,1031.19
2016-12-30T04:08:50.197Z,1031.18
2016-12-30T04:09:16.285Z,1031.19
2016-12-30T04:09:42.384Z,1031.15
2016-12-30T04:10:08.486Z,1031.17
2016-12-30T04:10:34.566Z,1031.15
2016-12-30T04:11:00.661Z,1031.21
2016-12-30T04:11:26.752Z,1031.16
2016-12-30T04:11:52.853Z,1031.19
2016-12-30T04:12:18.948Z,1031.2
2016-12-30T04:12:45.032Z,1031.14
2016-12-30T04:13:11.137Z,1031.17
2016-12-30T04:13:37.242Z,1031.13
2016-12-30T04:14:03.323Z,1031.14
2016-12-30T04:14:29.419Z,1031.14
2016-12-30T04:14:55.523Z,1031.12
2016-12-30T04:15:21.609Z,1031.12
2016-12-30T04:15:47.697Z,1031.12
2016-12-30T04:16:13.797Z,1031.15
2016-12-30T04:16:39.887Z,1031.15
2016-12-30T04:17:06.010Z,1031.15
2016-12-30T04:17:32.099Z,1031.13
2016-12-30T04:17:58.190Z,1031.11
2016-12-30T04:18:24.299Z,1031.13
2016-12-30T04:18:50.384Z,1031.11
2016-12-30T04:19:16.475Z,1031.12
2016-12-30T04:19:42.577Z,1031.09
2016-12-30T04:20:08.666Z,1031.1
2016-12-30T04:20:34.750Z,1031.1
2016-12-30T04:21:00.852Z,1031.12
2016-12-30T04:21:26.948Z,1031.13
2016-12-30T04:21:53.036Z,1031.09
2016-12-30T04:22:19.139Z,1031.1
2016-12-30T04:22:45.230Z,1031.12
2016-12-30T04:23:11.322Z,1031.06
2016-12-30T04:23:37.425Z,1031.07
2016-12-30T04:24:03.527Z,1031.06
2016-12-30T04:24:29.609Z,1031.06
2016-12-30T04:24:55.699Z,1031.1
2016-12-30T04:25:21.807Z,1031.08
2016-12-30T04:25:47.891Z,1031.06
2016-12-30T04:26:13.978Z,1031.08
2016-12-30T04:26:40.080Z,1031.08
2016-12-30T04:27:06.162Z,1031.07
2016-12-30T04:27:32.245Z,1031.09
2016-12-30T04:27:58.349Z,1031.08
2016-12-30T04:28:24.443Z,1031.06
2016-12-30T04:28:50.541Z,1031.06
2016-12-30T04:29:16.627Z,1031.08
2016-12-30T04:29:42.720Z,1031.02
2016-12-30T04:30:08.823Z,1031.07
2016-12-30T04:30:34.913Z,1031.05
2016-12-30T04:31:00.997Z,1031.06
2016-12-30T04:31:27.099Z,1031.04
2016-12-30T04:31:53.193Z,1031.05
2016-12-30T04:32:19.282Z,1031.06
2016-12-30T04:32:45.386Z,1031.03
2016-12-30T04:33:11.483Z,1031.07
2016-12-30T04:33:37.573Z,1031.08
2016-12-30T04:34:03.663Z,1031.06
2016-12-30T04:34:29.754Z,1031.08
2016-12-30T04:34:55.859Z,1031.07
2016-12-30T04:35:21.950Z,1031.1
2016-12-30T04:35:48.032Z,1031.05
2016-12-30T04:36:14.136Z,1031.07
2016-12-30T04:36:40.237Z,1031.08
2016-12-30T04:37:06.319Z,1031.07
2016-12-30T04:37:32.423Z,1031.09
2016-12-30T04:37:58.524Z,1031.05
2016-12-30T04:38:24.600Z,1031.06
2016-12-30T04:38:50.701Z,1031.07
2016-12-30T04:39:16.795Z,1031.1
2016-12-30T04:39:42.892Z,1031.08
2016-12-30T04:40:08.986Z,1031.07
2016-12-30T04:40:35.074Z,1031.08
2016-12-30T04:41:01.176Z,1031.08
2016-12-30T04:41:27.279Z,1031.05
2016-12-30T04:41:53.359Z,1031.06
2016-12-30T04:42:19.453Z,1031.05
2016-12-30T04:42:45.549Z,1031.07
2016-12-30T04:43:11.632Z,1031.05
2016-12-30T04:43:37.728Z,1031.04
2016-12-30T04:44:03.831Z,1031.05
2016-12-30T04:44:29.915Z,1031.03
2016-12-30T04:44:56.017Z,1031.03
2016-12-30T04:45:22.102Z,1031.09
2016-12-30T04:45:48.198Z,1031.12
2016-12-30T04:46:14.301Z,1031.11
2016-12-30T04:46:40.393Z,1031.08
2016-12-30T04:47:06.485Z,1031.06
2016-12-30T04:47:32.588Z,1031.1
2016-12-30T04:47:58.680Z,1031.12
2016-12-30T04:48:24.759Z,1031.12
2016-12-30T04:48:50.870Z,1031.09
2016-12-30T04:49:16.955Z,1031.13
2016-12-30T04:49:43.044Z,1031.09
2016-12-30T04:50:09.145Z,1031.11
2016-12-30T04:50:35.240Z,1031.14
2016-12-30T04:51:01.337Z,1031.09
2016-12-30T04:51:27.428Z,1031.15
2016-12-30T04:51:53.512Z,1031.11
2016-12-30T04:52:19.619Z,1031.13
2016-12-30T04:52:45.714Z,1031.14
2016-12-30T04:53:11.805Z,1031.16
2016-12-30T04:53:37.910Z,1031.12
2016-12-30T04:54:04.007Z,1031.14
2016-12-30T04:54:30.092Z,1031.13
2016-12-30T04:54:56.192Z,1031.14
2016-12-30T04:55:22.288Z,1031.14
2016-12-30T04:55:48.381Z,1031.14
2016-12-30T04:56:14.472Z,1031.13
2016-12-30T04:56:40.564Z,1031.12
2016-12-30T04:57:06.668Z,1031.15
2016-12-30T04:57:32.763Z,1031.14
2016-12-30T04:57:58.848Z,1031.13
2016-12-30T04:58:24.949Z,1031.14
2016-12-30T04:58:51.079Z,1031.13
2016-12-30T04:59:17.155Z,1031.14
2016-12-30T04:59:43.276Z,1031.16
2016-12-30T05:00:09.376Z,1031.16
2016-12-30T05:00:35.462Z,1031.18
2016-12-30T05:01:01.556Z,1031.2
2016-12-30T05:01:27.646Z,1031.19
2016-12-30T05:01:53.753Z,1031.18
2016-12-30T05:02:19.865Z,1031.16
2016-12-30T05:02:45.957Z,1031.19
2016-12-30T05:03:12.056Z,1031.16
2016-12-30T05:03:38.155Z,1031.22
2016-12-30T05:04:04.241Z,1031.19
2016-12-30T05:04:30.335Z,1031.19
2016-12-30T05:04:56.466Z,1031.19
2016-12-30T05:05:22.551Z,1031.19
2016-12-30T05:05:48.644Z,1031.19
2016-12-30T05:06:14.744Z,1031.21
2016-12-30T05:06:40.839Z,1031.19
2016-12-30T05:07:06.925Z,1031.23
2016-12-30T05:07:33.027Z,1031.21
2016-12-30T05:07:59.125Z,1031.22
2016-12-30T05:08:25.206Z,1031.24
2016-12-30T05:08:51.305Z,1031.23
2016-12-30T05:09:17.405Z,1031.24
2016-12-30T05:09:43.482Z,1031.25
2016-12-30T05:10:09.572Z,1031.26
2016-12-30T05:10:35.685Z,1031.25
2016-12-30T05:11:01.770Z,1031.22
2016-12-30T05:11:27.866Z,1031.22
2016-12-30T05:11:53.963Z,1031.26
2016-12-30T05:12:20.073Z,1031.24
2016-12-30T05:12:46.174Z,1031.23
2016-12-30T05:13:12.254Z,1031.28
2016-12-30T05:13:38.351Z,1031.24
2016-12-30T05:14:04.451Z,1031.27
2016-12-30T05:14:30.533Z,1031.29
2016-12-30T05:14:56.630Z,1031.29
2016-12-30T05:15:22.733Z,1031.3
2016-12-30T05:15:48.825Z,1031.28
2016-12-30T05:16:14.906Z,1031.29
2016-12-30T05:16:41.013Z,1031.29